createdAt,value
2023-06-28T00:00:57.490Z,16.91
2023-06-28T00:03:24.028Z,16.88
2023-06-28T00:05:50.493Z,16.84
2023-06-28T00:08:17.021Z,16.91
2023-06-28T00:10:43.761Z,16.87
2023-06-28T00:13:10.381Z,16.91
2023-06-28T00:15:36.971Z,16.91
2023-06-28T00:18:04.043Z,16.95
2023-06-28T00:20:31.195Z,17.04
2023-06-28T00:22:57.760Z,17.04
2023-06-28T00:25:24.313Z,17.09
2023-06-28T00:27:50.911Z,17.05
2023-06-28T00:30:17.819Z,17.15
2023-06-28T00:32:44.665Z,17.13
2023-06-28T00:35:11.179Z,17.20
2023-06-28T00:37:37.716Z,17.21
2023-06-28T00:40:06.927Z,17.21
2023-06-28T00:42:33.654Z,17.29
2023-06-28T00:45:00.655Z,17.17
2023-06-28T00:47:28.749Z,17.34
2023-06-28T00:49:56.403Z,17.30
2023-06-28T00:52:23.216Z,17.30
2023-06-28T00:54:50.273Z,17.21
2023-06-28T00:57:16.932Z,17.44
2023-06-28T00:59:43.812Z,17.40
2023-06-28T01:02:11.487Z,17.33
2023-06-28T01:04:39.110Z,17.31
2023-06-28T01:07:05.920Z,17.35
2023-06-28T01:09:32.731Z,17.16
2023-06-28T01:11:59.659Z,17.37
2023-06-28T01:14:26.506Z,17.48
2023-06-28T01:16:56.242Z,17.40
2023-06-28T01:19:27.377Z,17.29
2023-06-28T01:22:00.755Z,17.40
2023-06-28T01:24:27.733Z,17.41
2023-06-28T01:26:54.924Z,17.38
2023-06-28T01:29:23.007Z,17.47
2023-06-28T01:31:53.868Z,17.35
2023-06-28T01:34:21.042Z,17.37
2023-06-28T01:36:47.844Z,17.34
2023-06-28T01:39:15.599Z,17.26
2023-06-28T01:41:42.724Z,17.33
2023-06-28T01:44:09.234Z,17.35
2023-06-28T01:46:36.026Z,17.43
2023-06-28T01:49:02.933Z,17.49
2023-06-28T01:51:29.535Z,17.39
2023-06-28T01:53:56.610Z,17.29
2023-06-28T01:56:23.120Z,17.30
2023-06-28T01:58:49.568Z,17.37
2023-06-28T02:01:16.112Z,17.33
2023-06-28T02:03:42.670Z,17.31
2023-06-28T02:06:09.875Z,17.25
2023-06-28T02:08:36.506Z,17.25
2023-06-28T02:11:03.040Z,17.21
2023-06-28T02:13:29.585Z,17.01
2023-06-28T02:15:56.567Z,17.17
2023-06-28T02:18:26.265Z,17.19
2023-06-28T02:20:52.944Z,17.24
2023-06-28T02:23:22.275Z,17.22
2023-06-28T02:25:48.822Z,17.21
2023-06-28T02:28:15.818Z,17.19
2023-06-28T02:30:42.545Z,17.22
2023-06-28T02:33:09.338Z,17.26
2023-06-28T02:35:35.826Z,17.22
2023-06-28T02:38:02.311Z,17.25
2023-06-28T02:40:28.813Z,17.18
2023-06-28T02:42:55.350Z,17.07
2023-06-28T02:45:21.827Z,17.08
2023-06-28T02:47:48.312Z,17.04
2023-06-28T02:50:14.912Z,17.05
2023-06-28T02:52:41.422Z,17.03
2023-06-28T02:55:08.888Z,16.97
2023-06-28T02:57:35.525Z,16.93
2023-06-28T03:00:02.222Z,16.93
2023-06-28T03:02:28.866Z,16.88
2023-06-28T03:04:55.375Z,16.86
2023-06-28T03:07:21.979Z,16.76
2023-06-28T03:09:48.552Z,16.84
2023-06-28T03:12:15.044Z,16.79
2023-06-28T03:14:41.574Z,16.82
2023-06-28T03:17:08.368Z,16.85
2023-06-28T03:19:35.383Z,16.85
2023-06-28T03:22:02.288Z,16.82
2023-06-28T03:24:29.527Z,16.72
2023-06-28T03:26:56.619Z,16.71
2023-06-28T03:29:23.184Z,16.64
2023-06-28T03:31:49.763Z,16.65
2023-06-28T03:34:17.837Z,16.67
2023-06-28T03:36:54.420Z,16.63
2023-06-28T03:39:29.775Z,16.56
2023-06-28T03:41:56.249Z,16.62
2023-06-28T03:44:22.746Z,16.64
2023-06-28T03:46:49.226Z,16.61
2023-06-28T03:49:15.703Z,16.59
2023-06-28T03:51:42.211Z,16.60
2023-06-28T03:54:08.676Z,16.58
2023-06-28T03:56:35.176Z,16.57
2023-06-28T03:59:01.776Z,16.60
2023-06-28T04:01:28.302Z,16.62
2023-06-28T04:03:54.836Z,16.60
2023-06-28T04:06:21.403Z,16.59
2023-06-28T04:08:48.170Z,16.54
2023-06-28T04:11:14.781Z,16.59
2023-06-28T04:13:41.259Z,16.52
2023-06-28T04:16:07.743Z,16.64
2023-06-28T04:18:34.256Z,16.62
2023-06-28T04:21:00.750Z,16.72
2023-06-28T04:23:27.215Z,16.67
2023-06-28T04:25:54.430Z,16.74
2023-06-28T04:28:20.961Z,16.76
2023-06-28T04:30:47.469Z,16.48
2023-06-28T04:33:19.349Z,16.77
2023-06-28T04:35:49.012Z,16.81
2023-06-28T04:38:15.948Z,16.63
2023-06-28T04:40:42.732Z,16.82
2023-06-28T04:43:11.524Z,16.82
2023-06-28T04:45:38.866Z,16.80
2023-06-28T04:48:06.858Z,16.82
2023-06-28T04:50:34.699Z,16.89
2023-06-28T04:53:02.025Z,16.89
2023-06-28T04:55:34.030Z,16.88
2023-06-28T04:58:04.443Z,16.78
2023-06-28T05:00:31.377Z,16.93
2023-06-28T05:02:58.791Z,16.93
2023-06-28T05:05:25.938Z,16.96
2023-06-28T05:07:55.761Z,16.83
2023-06-28T05:10:24.641Z,17.04
2023-06-28T05:12:52.815Z,16.98
2023-06-28T05:15:20.077Z,17.04
2023-06-28T05:17:46.991Z,17.08
2023-06-28T05:20:15.533Z,17.11
2023-06-28T05:22:45.376Z,17.10
2023-06-28T05:25:12.021Z,17.12
2023-06-28T05:27:38.555Z,17.16
2023-06-28T05:30:05.733Z,17.18
2023-06-28T05:32:32.539Z,17.17
2023-06-28T05:34:59.151Z,17.17
2023-06-28T05:37:25.682Z,17.26
2023-06-28T05:39:52.232Z,17.23
2023-06-28T05:42:18.757Z,17.37
2023-06-28T05:44:45.251Z,17.33
2023-06-28T05:47:11.802Z,17.36
2023-06-28T05:49:39.114Z,17.41
2023-06-28T05:52:06.448Z,17.45
2023-06-28T05:54:32.959Z,17.40
2023-06-28T05:56:59.473Z,17.50
2023-06-28T05:59:25.987Z,17.55
2023-06-28T06:01:55.428Z,17.46
2023-06-28T06:04:22.349Z,17.36
2023-06-28T06:06:48.879Z,17.48
2023-06-28T06:09:15.416Z,17.40
2023-06-28T06:11:41.884Z,17.40
2023-06-28T06:14:08.583Z,17.40
2023-06-28T06:16:35.072Z,17.25
2023-06-28T06:19:01.602Z,17.56
2023-06-28T06:21:28.167Z,17.57
2023-06-28T06:23:54.761Z,17.51
2023-06-28T06:26:21.206Z,17.52
2023-06-28T06:28:47.754Z,17.56
2023-06-28T06:31:16.193Z,17.58
2023-06-28T06:33:43.002Z,17.64
2023-06-28T06:36:09.571Z,17.72
2023-06-28T06:38:38.517Z,17.68
2023-06-28T06:41:05.167Z,17.71
2023-06-28T06:43:31.742Z,17.75
2023-06-28T06:45:58.398Z,17.48
2023-06-28T06:48:25.046Z,17.76
2023-06-28T06:50:51.554Z,17.75
2023-06-28T06:53:18.297Z,17.79
2023-06-28T06:55:44.803Z,17.83
2023-06-28T06:58:11.323Z,17.85
2023-06-28T07:00:38.440Z,17.91
2023-06-28T07:03:05.250Z,17.90
2023-06-28T07:05:31.802Z,17.81
2023-06-28T07:07:58.365Z,17.86
2023-06-28T07:10:24.871Z,17.82
2023-06-28T07:12:51.382Z,17.73
2023-06-28T07:15:18.117Z,17.82
2023-06-28T07:17:44.704Z,17.81
2023-06-28T07:20:11.518Z,17.80
2023-06-28T07:22:38.026Z,17.70
2023-06-28T07:25:05.734Z,17.75
2023-06-28T07:27:32.287Z,17.78
2023-06-28T07:29:58.820Z,17.80
2023-06-28T07:32:27.803Z,17.71
2023-06-28T07:34:56.160Z,17.72
2023-06-28T07:37:23.289Z,17.84
2023-06-28T07:39:50.139Z,17.87
2023-06-28T07:42:16.759Z,17.82
2023-06-28T07:44:44.458Z,17.90
2023-06-28T07:47:10.955Z,17.92
2023-06-28T07:49:37.629Z,18.00
2023-06-28T07:52:04.295Z,17.99
2023-06-28T07:54:34.526Z,17.97
2023-06-28T07:57:02.206Z,18.05
2023-06-28T07:59:28.858Z,18.03
2023-06-28T08:01:55.335Z,18.03
2023-06-28T08:04:21.819Z,18.07
2023-06-28T08:06:48.469Z,18.17
2023-06-28T08:09:15.126Z,18.22
2023-06-28T08:11:41.971Z,18.27
2023-06-28T08:14:08.713Z,18.28
2023-06-28T08:16:35.487Z,18.38
2023-06-28T08:19:02.103Z,18.21
2023-06-28T08:21:28.673Z,18.45
2023-06-28T08:23:55.195Z,18.45
2023-06-28T08:26:21.935Z,18.47
2023-06-28T08:28:58.671Z,18.42
2023-06-28T08:31:26.909Z,18.44
2023-06-28T08:33:53.533Z,18.56
2023-06-28T08:36:20.034Z,18.58
2023-06-28T08:38:46.583Z,18.59
2023-06-28T08:41:13.360Z,18.43
2023-06-28T08:43:39.931Z,18.59
2023-06-28T08:46:06.518Z,18.60
2023-06-28T08:48:33.379Z,18.53
2023-06-28T08:51:00.273Z,18.58
2023-06-28T08:53:30.312Z,18.64
2023-06-28T08:55:58.014Z,18.72
2023-06-28T08:58:24.600Z,18.70
2023-06-28T09:00:51.202Z,18.89
2023-06-28T09:03:17.879Z,18.99
2023-06-28T09:05:45.621Z,19.10
2023-06-28T09:08:13.091Z,19.16
2023-06-28T09:10:40.650Z,19.30
2023-06-28T09:13:07.757Z,19.21
2023-06-28T09:15:35.499Z,19.31
2023-06-28T09:18:02.319Z,19.32
2023-06-28T09:20:28.841Z,19.39
2023-06-28T09:22:59.926Z,19.38
2023-06-28T09:25:28.792Z,19.32
2023-06-28T09:27:56.439Z,19.55
2023-06-28T09:30:23.113Z,19.70
2023-06-28T09:32:53.030Z,19.79
2023-06-28T09:35:20.553Z,19.88
2023-06-28T09:37:51.919Z,19.85
2023-06-28T09:40:19.232Z,19.74
2023-06-28T09:42:47.789Z,20.18
2023-06-28T09:45:28.465Z,20.28
2023-06-28T09:47:59.373Z,20.18
2023-06-28T09:50:37.906Z,20.53
2023-06-28T09:53:08.874Z,20.66
2023-06-28T09:55:37.393Z,20.76
2023-06-28T09:58:04.025Z,20.75
2023-06-28T10:00:32.615Z,20.74
2023-06-28T10:03:00.053Z,20.69
2023-06-28T10:05:27.736Z,20.75
2023-06-28T10:07:54.789Z,20.92
2023-06-28T10:10:21.420Z,21.09
2023-06-28T10:12:48.103Z,21.22
2023-06-28T10:15:22.085Z,21.49
2023-06-28T10:17:48.920Z,21.75
2023-06-28T10:20:15.472Z,21.85
2023-06-28T10:22:42.272Z,21.86
2023-06-28T10:25:08.866Z,21.69
2023-06-28T10:27:35.840Z,21.77
2023-06-28T10:30:02.299Z,22.03
2023-06-28T10:32:28.949Z,22.09
2023-06-28T10:34:57.721Z,22.39
2023-06-28T10:37:24.765Z,22.40
2023-06-28T10:39:52.326Z,22.60
2023-06-28T10:42:22.306Z,22.89
2023-06-28T10:44:56.253Z,22.89
2023-06-28T10:47:23.229Z,22.92
2023-06-28T10:50:09.678Z,23.07
2023-06-28T10:52:37.408Z,23.37
2023-06-28T10:55:04.518Z,23.54
2023-06-28T10:57:38.444Z,23.41
2023-06-28T11:00:10.966Z,23.85
2023-06-28T11:03:01.316Z,23.78
2023-06-28T11:05:46.787Z,23.58
2023-06-28T11:08:15.353Z,23.78
2023-06-28T11:10:46.582Z,23.48
2023-06-28T11:13:14.738Z,23.54
2023-06-28T11:15:46.127Z,23.28
2023-06-28T11:18:16.796Z,23.72
2023-06-28T11:20:52.249Z,23.73
2023-06-28T11:23:25.018Z,24.10
2023-06-28T11:26:00.952Z,23.86
2023-06-28T11:28:32.383Z,24.00
2023-06-28T11:31:23.492Z,24.06
2023-06-28T11:33:52.205Z,24.32
2023-06-28T11:36:19.769Z,24.33
2023-06-28T11:38:47.216Z,24.48
2023-06-28T11:41:17.151Z,24.48
2023-06-28T11:43:47.761Z,24.38
2023-06-28T11:46:22.554Z,24.28
2023-06-28T11:48:50.733Z,24.47
2023-06-28T11:51:17.624Z,24.76
2023-06-28T11:53:50.457Z,24.62
2023-06-28T11:56:16.953Z,24.95
2023-06-28T11:58:43.464Z,24.92
2023-06-28T12:01:20.610Z,24.60
2023-06-28T12:03:47.147Z,24.58
2023-06-28T12:06:14.054Z,24.33
2023-06-28T12:08:41.907Z,24.26
2023-06-28T12:11:17.082Z,24.32
2023-06-28T12:13:44.995Z,24.11
2023-06-28T12:16:22.571Z,23.97
2023-06-28T12:18:54.660Z,24.10
2023-06-28T12:21:25.688Z,24.15
2023-06-28T12:23:52.648Z,24.12
2023-06-28T12:26:21.753Z,24.02
2023-06-28T12:28:49.979Z,23.72
2023-06-28T12:31:17.113Z,23.67
2023-06-28T12:33:44.330Z,23.66
2023-06-28T12:36:17.158Z,23.49
2023-06-28T12:38:45.440Z,23.49
2023-06-28T12:41:14.051Z,23.44
2023-06-28T12:43:42.678Z,23.42
2023-06-28T12:46:11.307Z,23.23
2023-06-28T12:48:38.148Z,22.94
2023-06-28T12:51:04.713Z,22.81
2023-06-28T12:53:31.236Z,22.72
2023-06-28T12:55:57.786Z,22.55
2023-06-28T12:58:24.243Z,22.54
2023-06-28T13:00:50.797Z,22.38
2023-06-28T13:03:20.015Z,22.34
2023-06-28T13:05:48.654Z,22.27
2023-06-28T13:08:15.308Z,22.13
2023-06-28T13:10:42.147Z,22.19
2023-06-28T13:13:09.050Z,22.29
2023-06-28T13:15:37.502Z,22.41
2023-06-28T13:18:04.767Z,22.46
2023-06-28T13:20:31.324Z,22.47
2023-06-28T13:22:57.928Z,22.50
2023-06-28T13:25:24.527Z,22.52
2023-06-28T13:27:51.019Z,22.47
2023-06-28T13:30:17.527Z,22.40
2023-06-28T13:32:44.091Z,22.36
2023-06-28T13:35:12.262Z,22.41
2023-06-28T13:37:38.791Z,22.46
2023-06-28T13:40:06.617Z,22.35
2023-06-28T13:42:33.773Z,22.41
2023-06-28T13:45:00.295Z,22.51
2023-06-28T13:47:27.043Z,22.53
2023-06-28T13:49:53.582Z,22.49
2023-06-28T13:52:21.007Z,22.56
2023-06-28T13:54:47.613Z,22.52
2023-06-28T13:57:14.763Z,22.61
2023-06-28T13:59:41.269Z,22.58
2023-06-28T14:02:07.961Z,22.53
2023-06-28T14:04:34.473Z,22.65
2023-06-28T14:07:00.981Z,22.63
2023-06-28T14:09:27.686Z,22.70
2023-06-28T14:11:54.133Z,22.66
2023-06-28T14:14:20.732Z,22.76
2023-06-28T14:16:47.253Z,22.80
2023-06-28T14:19:13.716Z,22.93
2023-06-28T14:21:40.174Z,23.05
2023-06-28T14:24:07.020Z,23.04
2023-06-28T14:26:33.549Z,23.02
2023-06-28T14:29:01.531Z,22.90
2023-06-28T14:31:28.157Z,22.99
2023-06-28T14:33:54.655Z,22.96
2023-06-28T14:36:21.119Z,22.85
2023-06-28T14:38:47.567Z,22.85
2023-06-28T14:41:14.124Z,22.78
2023-06-28T14:43:40.649Z,22.84
2023-06-28T14:46:07.194Z,22.85
2023-06-28T14:48:33.664Z,22.92
2023-06-28T14:51:00.191Z,23.02
2023-06-28T14:53:26.667Z,23.05
2023-06-28T14:55:53.196Z,23.06
2023-06-28T14:58:19.682Z,23.15
2023-06-28T15:00:46.718Z,23.20
2023-06-28T15:03:13.817Z,23.20
2023-06-28T15:05:42.169Z,23.21
2023-06-28T15:08:08.951Z,22.90
2023-06-28T15:10:35.537Z,22.87
2023-06-28T15:13:02.014Z,22.84
2023-06-28T15:15:29.857Z,22.91
2023-06-28T15:17:56.499Z,22.76
2023-06-28T15:20:34.441Z,22.78
2023-06-28T15:23:07.206Z,22.72
2023-06-28T15:25:34.179Z,22.74
2023-06-28T15:28:00.643Z,22.46
2023-06-28T15:30:27.280Z,22.39
2023-06-28T15:32:54.015Z,22.40
2023-06-28T15:35:21.257Z,22.17
2023-06-28T15:37:48.597Z,22.08
2023-06-28T15:40:15.524Z,21.93
2023-06-28T15:42:42.194Z,22.16
2023-06-28T15:45:09.129Z,22.10
2023-06-28T15:47:35.665Z,22.07
2023-06-28T15:50:02.381Z,22.10
2023-06-28T15:52:31.134Z,22.19
2023-06-28T15:55:01.546Z,22.22
2023-06-28T15:57:28.237Z,22.19
2023-06-28T15:59:54.826Z,22.08
2023-06-28T16:02:21.927Z,22.38
2023-06-28T16:04:48.808Z,22.45
2023-06-28T16:07:15.487Z,22.48
2023-06-28T16:09:42.194Z,22.53
2023-06-28T16:12:08.989Z,22.52
2023-06-28T16:14:35.520Z,22.60
2023-06-28T16:17:04.257Z,22.64
2023-06-28T16:19:31.086Z,22.65
2023-06-28T16:21:57.606Z,22.62
2023-06-28T16:24:24.110Z,22.65
2023-06-28T16:26:50.653Z,22.59
2023-06-28T16:29:17.192Z,22.61
2023-06-28T16:31:43.880Z,22.57
2023-06-28T16:34:10.380Z,22.61
2023-06-28T16:36:41.895Z,22.61
2023-06-28T16:39:09.229Z,22.56
2023-06-28T16:41:35.846Z,22.46
2023-06-28T16:44:02.370Z,22.66
2023-06-28T16:46:28.867Z,22.68
2023-06-28T16:48:55.346Z,22.72
2023-06-28T16:51:22.203Z,22.71
2023-06-28T16:53:48.725Z,22.74
2023-06-28T16:56:15.250Z,22.76
2023-06-28T16:58:41.801Z,22.80
2023-06-28T17:01:08.399Z,22.84
2023-06-28T17:03:34.978Z,22.90
2023-06-28T17:06:01.648Z,22.91
2023-06-28T17:08:29.274Z,22.91
2023-06-28T17:10:55.804Z,22.93
2023-06-28T17:13:22.279Z,22.96
2023-06-28T17:15:48.815Z,22.95
2023-06-28T17:18:15.361Z,23.01
2023-06-28T17:20:42.074Z,22.97
2023-06-28T17:23:08.924Z,23.01
2023-06-28T17:25:35.780Z,23.03
2023-06-28T17:28:02.369Z,23.03
2023-06-28T17:30:30.184Z,23.06
2023-06-28T17:32:56.731Z,23.05
2023-06-28T17:35:23.300Z,23.00
2023-06-28T17:37:50.033Z,22.94
2023-06-28T17:40:16.552Z,22.95
2023-06-28T17:42:43.082Z,22.89
2023-06-28T17:45:10.099Z,22.86
2023-06-28T17:47:36.656Z,22.85
2023-06-28T17:50:03.514Z,22.78
2023-06-28T17:52:30.035Z,22.81
2023-06-28T17:54:58.276Z,22.79
2023-06-28T17:57:24.808Z,22.85
2023-06-28T17:59:51.435Z,22.79
2023-06-28T18:02:18.529Z,22.81
2023-06-28T18:04:45.095Z,22.80
2023-06-28T18:07:11.622Z,22.80
2023-06-28T18:09:38.213Z,22.83
2023-06-28T18:12:05.122Z,22.82
2023-06-28T18:14:31.688Z,22.85
2023-06-28T18:16:58.222Z,22.90
2023-06-28T18:19:24.659Z,22.95
2023-06-28T18:21:51.357Z,22.79
2023-06-28T18:24:17.913Z,22.97
2023-06-28T18:26:44.389Z,23.02
2023-06-28T18:29:10.917Z,23.02
2023-06-28T18:31:37.428Z,22.97
2023-06-28T18:34:04.800Z,22.96
2023-06-28T18:36:31.278Z,22.88
2023-06-28T18:38:57.882Z,22.95
2023-06-28T18:41:24.461Z,22.98
2023-06-28T18:43:51.059Z,22.89
2023-06-28T18:46:17.606Z,22.79
2023-06-28T18:48:44.094Z,22.83
2023-06-28T18:51:10.679Z,22.74
2023-06-28T18:53:37.182Z,22.77
2023-06-28T18:56:03.797Z,22.48
2023-06-28T18:58:31.784Z,22.76
2023-06-28T19:00:58.881Z,22.74
2023-06-28T19:03:26.129Z,22.75
2023-06-28T19:05:53.697Z,22.64
2023-06-28T19:08:21.203Z,22.71
2023-06-28T19:10:49.077Z,22.68
2023-06-28T19:13:16.030Z,22.69
2023-06-28T19:15:42.524Z,22.64
2023-06-28T19:18:09.200Z,22.63
2023-06-28T19:20:38.594Z,22.60
2023-06-28T19:23:05.426Z,22.33
2023-06-28T19:25:32.024Z,22.56
2023-06-28T19:27:58.502Z,22.55
2023-06-28T19:30:25.033Z,22.53
2023-06-28T19:32:51.607Z,22.52
2023-06-28T19:35:18.257Z,22.37
2023-06-28T19:37:44.758Z,22.48
2023-06-28T19:40:12.029Z,22.50
2023-06-28T19:42:38.550Z,22.53
2023-06-28T19:45:06.118Z,22.50
2023-06-28T19:47:32.796Z,22.47
2023-06-28T19:49:59.310Z,22.41
2023-06-28T19:52:27.972Z,22.43
2023-06-28T19:54:54.485Z,22.45
2023-06-28T19:57:21.016Z,22.45
2023-06-28T19:59:47.521Z,22.43
2023-06-28T20:02:14.150Z,22.38
2023-06-28T20:04:40.874Z,22.41
2023-06-28T20:07:07.558Z,22.28
2023-06-28T20:09:34.122Z,22.37
2023-06-28T20:12:00.556Z,22.33
2023-06-28T20:14:27.233Z,22.33
2023-06-28T20:16:54.115Z,22.28
2023-06-28T20:19:20.692Z,22.29
2023-06-28T20:21:48.111Z,22.26
2023-06-28T20:24:14.688Z,22.19
2023-06-28T20:26:41.136Z,22.20
2023-06-28T20:29:07.596Z,22.19
2023-06-28T20:31:34.336Z,22.18
2023-06-28T20:34:00.944Z,22.13
2023-06-28T20:36:27.529Z,22.10
2023-06-28T20:38:54.090Z,22.11
2023-06-28T20:41:25.788Z,22.14
2023-06-28T20:43:54.132Z,22.08
2023-06-28T20:46:20.711Z,22.09
2023-06-28T20:48:47.304Z,22.07
2023-06-28T20:51:14.647Z,22.09
2023-06-28T20:53:43.719Z,21.98
2023-06-28T20:56:11.074Z,22.08
2023-06-28T20:58:37.595Z,22.10
2023-06-28T21:01:06.926Z,22.08
2023-06-28T21:03:33.692Z,22.02
2023-06-28T21:06:00.142Z,22.02
2023-06-28T21:08:27.562Z,22.00
2023-06-28T21:10:54.503Z,21.82
2023-06-28T21:13:21.168Z,21.95
2023-06-28T21:15:48.295Z,21.97
2023-06-28T21:18:15.159Z,21.97
2023-06-28T21:20:41.874Z,21.89
2023-06-28T21:23:08.441Z,21.95
2023-06-28T21:25:35.757Z,21.94
2023-06-28T21:28:02.286Z,21.95
2023-06-28T21:30:28.931Z,21.87
2023-06-28T21:32:55.423Z,21.77
2023-06-28T21:35:24.231Z,21.87
2023-06-28T21:37:50.747Z,21.83
2023-06-28T21:40:17.291Z,21.82
2023-06-28T21:42:43.826Z,21.78
2023-06-28T21:45:10.846Z,21.79
2023-06-28T21:47:37.477Z,21.69
2023-06-28T21:50:05.036Z,21.73
2023-06-28T21:52:31.506Z,21.75
2023-06-28T21:54:57.997Z,21.71
2023-06-28T21:57:24.460Z,21.68
2023-06-28T21:59:51.026Z,21.69
2023-06-28T22:02:17.872Z,21.69
2023-06-28T22:04:44.514Z,21.66
2023-06-28T22:07:11.046Z,21.67
2023-06-28T22:09:37.635Z,21.63
2023-06-28T22:12:06.072Z,21.61
2023-06-28T22:14:32.763Z,21.57
2023-06-28T22:16:59.409Z,21.58
2023-06-28T22:19:27.521Z,21.62
2023-06-28T22:21:55.710Z,21.66
2023-06-28T22:24:22.274Z,21.57
2023-06-28T22:26:48.818Z,21.40
2023-06-28T22:29:15.338Z,21.53
2023-06-28T22:31:41.840Z,21.54
2023-06-28T22:34:08.337Z,21.52
2023-06-28T22:36:37.308Z,21.56
2023-06-28T22:39:06.774Z,21.53
2023-06-28T22:41:34.150Z,21.25
2023-06-28T22:44:00.666Z,21.44
2023-06-28T22:46:27.306Z,21.45
2023-06-28T22:48:53.814Z,21.47
2023-06-28T22:51:20.320Z,21.41
2023-06-28T22:53:48.138Z,21.42
2023-06-28T22:56:16.236Z,21.44
2023-06-28T22:58:42.982Z,21.47
2023-06-28T23:01:11.211Z,21.45
2023-06-28T23:03:37.803Z,21.41
2023-06-28T23:06:04.412Z,21.40
2023-06-28T23:08:32.752Z,21.37
2023-06-28T23:10:59.264Z,21.32
2023-06-28T23:13:25.791Z,21.29
2023-06-28T23:15:52.302Z,21.30
2023-06-28T23:18:21.705Z,21.24
2023-06-28T23:20:51.749Z,21.20
2023-06-28T23:23:19.264Z,21.18
2023-06-28T23:25:52.651Z,21.09
2023-06-28T23:28:19.791Z,21.20
2023-06-28T23:30:46.816Z,21.20
2023-06-28T23:33:16.499Z,21.19
2023-06-28T23:35:46.571Z,21.16
2023-06-28T23:38:13.841Z,21.14
2023-06-28T23:40:41.244Z,21.17
2023-06-28T23:43:08.491Z,21.14
2023-06-28T23:45:41.908Z,21.13
2023-06-28T23:48:09.258Z,21.12
2023-06-28T23:50:35.815Z,21.11
2023-06-28T23:53:03.078Z,21.10
2023-06-28T23:55:30.139Z,21.09
2023-06-28T23:57:57.645Z,21.08
